GABSGUCY

Guest
Details From GABS - Bamako Senou
To GUCY - CONAKRY
Flight Number -
Tags generated
Created
Modified
Stats Distance 378 nm / 700 km
Max Altitude 28,600 ft / 8,717 m
Waypoints 5
Social Downloads 2
Likes 0
Share VATSIM

Download

Looking for another format? Having issues loading an existing format? Contact us
Advertisement - Login to hide

Notes

Basic altitude profile: - Ascent Rate: 2500ft/min - Ascent Speed: 250kts - Cruise Altitude: 25000ft - Cruise Speed: 420kts - Descent Rate: 1500ft/min - Descent Speed: 250kts Options: - Use NATs: yes - Use PACOTS: yes - Use low airways: yes - Use high airways: yes

Route

GABS NEGLO UA612 ILGOT GUCY

ID Type Via Altitude Latitude Longitude Leg Dist Tot Dist Heading (true) Name
O GABS APT - 0 ft / 0 m 12.53354˚ -7.94994˚ - 0 nm - Bamako Senou
NEGLO FIX - 28,200 ft / 8,595 m 11.93333˚ -9.15000˚ 79 nm 79 nm 243° / 243° -
KOLIP FIX UA612 (AWY-HI) 28,600 ft / 8,717 m 10.66667˚ -11.55000˚ 160 nm 239 nm 242° / 241° -
ILGOT FIX UA612 (AWY-HI) 24,000 ft / 7,315 m 10.15000˚ -12.51667˚ 64 nm 304 nm 242° / 241° -
O GUCY APT - 0 ft / 0 m 9.57690˚ -13.61188˚ 73 nm 377 nm 242° / 242° CONAKRY

Altitude Profile

Advertisement - Login to hide

Weather


0- 5 10 15 20 25 30 35+ Temperature / ° C

Clouds and Precipitation
Forecast for 2018-05-23 18:00 UTC. Updated 2 hours ago

Ground ~20,000 ft ~40,000 ft Winds

GABS

Details ICAO GABS (BKO)
Name Bamako Senou
Region Mali
Timezone Africa/Bamako (UTC+0.0)
Stats Elevation 1,246 ft / 380 m (AMSL)
Location 12.533544° -7.949943°
Runways 1
Magnetic Variation 4.116° W

METAR

GABS 231900Z 17007KT 140V200 9999 FEW030 FEW040CB 37/19 Q1011 TEMPO 16025G45KT 4000 TSRA

Decode

TAF

TAF AMD TAF AMD GABS 231809Z 2319/2424 22010KT 9999 FEW030 TEMPO 2319/2323 16020G40KT 2000 SQ BLDU TSRA BKN015 SCT030CB PROB40 TEMPO 2404/2412 06015G35KT 2000 BLDU TSRA BKN015 SCT030CB PROB40 TEMPO 2418/2424 08020G45KT SQ TSRA OVC015 SCT030CB

Decode

Departure Runways

ID Width Length Bearing (true) Bearing (mag) Surface Threshold Offset Overrun Length
06 148 ft / 45 m 8,888 ft / 2,709 m 56.51° 60.63° Asphalt 0 ft / 0 m 327 ft / 100 m
24 148 ft / 45 m 8,888 ft / 2,709 m 236.51° 240.63° Asphalt 0 ft / 0 m 327 ft / 100 m

GUCY

Details ICAO GUCY (CKY)
Name CONAKRY
Region Guinea
Timezone Africa/Conakry (UTC+0.0)
Stats Elevation 72 ft / 22 m (AMSL)
Location 9.576897° -13.611879°
Runways 1
Magnetic Variation 6.957° W

METAR

GUCY 231900Z 23010KT CAVOK 29/18 Q1012 NOSIG

Decode

TAF

TAF GUCY 231700Z 2318/2424 28008KT 9999 FEW015 SCT110 TEMPO 2401//2006 12004KT 6000 -TSRA SCT013 FEW23CB BKN110

Decode

Destination Runways

ID Width Length Bearing (true) Bearing (mag) Surface Threshold Offset Overrun Length
06 148 ft / 45 m 10,836 ft / 3,303 m 49.26° 56.22° Asphalt 0 ft / 0 m 197 ft / 60 m
24 148 ft / 45 m 10,836 ft / 3,303 m 229.27° 236.23° Asphalt 0 ft / 0 m 197 ft / 60 m

Popular Alternatives